createdAt,value
2022-11-03T00:00:32.251Z,9.29
2022-11-03T00:05:33.034Z,9.26
2022-11-03T00:10:33.791Z,9.26
2022-11-03T00:15:34.576Z,9.29
2022-11-03T00:20:35.325Z,9.26
2022-11-03T00:25:36.068Z,9.13
2022-11-03T00:30:36.779Z,8.96
2022-11-03T00:35:37.513Z,8.89
2022-11-03T00:40:38.224Z,8.92
2022-11-03T00:45:38.994Z,8.92
2022-11-03T00:50:39.776Z,8.86
2022-11-03T00:55:40.487Z,8.84
2022-11-03T01:00:41.227Z,8.83
2022-11-03T01:05:41.956Z,8.73
2022-11-03T01:10:42.688Z,8.61
2022-11-03T01:15:43.410Z,8.66
2022-11-03T01:20:44.282Z,8.71
2022-11-03T01:25:45.051Z,8.66
2022-11-03T01:30:45.850Z,8.65
2022-11-03T01:35:46.563Z,8.61
2022-11-03T01:40:47.264Z,8.47
2022-11-03T01:45:48.045Z,8.44
2022-11-03T01:50:48.752Z,8.48
2022-11-03T01:55:49.479Z,8.56
2022-11-03T02:00:50.273Z,8.53
2022-11-03T02:05:51.068Z,8.52
2022-11-03T02:10:51.817Z,8.43
2022-11-03T02:15:52.542Z,8.28
2022-11-03T02:20:53.297Z,8.20
2022-11-03T02:25:54.020Z,8.11
2022-11-03T02:30:54.760Z,8.10
2022-11-03T02:35:55.486Z,8.08
2022-11-03T02:40:56.217Z,8.02
2022-11-03T02:45:56.930Z,8.04
2022-11-03T02:50:57.652Z,8.08
2022-11-03T02:55:58.474Z,8.12
2022-11-03T03:00:59.301Z,8.19
2022-11-03T03:06:00.100Z,8.29
2022-11-03T03:11:00.817Z,8.26
2022-11-03T03:16:01.546Z,8.22
2022-11-03T03:21:02.285Z,8.20
2022-11-03T03:26:02.979Z,8.22
2022-11-03T03:31:03.834Z,8.16
2022-11-03T03:36:04.598Z,8.10
2022-11-03T03:41:10.355Z,8.11
2022-11-03T03:46:06.903Z,8.02
2022-11-03T03:51:06.583Z,8.01
2022-11-03T03:56:07.316Z,7.97
2022-11-03T04:01:08.086Z,7.98
2022-11-03T04:06:08.872Z,7.97
2022-11-03T04:11:16.519Z,7.93
2022-11-03T04:16:10.240Z,7.90
2022-11-03T04:21:11.089Z,7.93
2022-11-03T04:26:11.845Z,7.85
2022-11-03T04:31:12.581Z,7.87
2022-11-03T04:36:13.366Z,7.97
2022-11-03T04:41:14.101Z,7.97
2022-11-03T04:46:14.886Z,7.92
2022-11-03T04:51:15.618Z,7.83
2022-11-03T04:56:16.364Z,7.82
2022-11-03T05:01:22.490Z,7.82
2022-11-03T05:06:18.738Z,7.82
2022-11-03T05:11:18.431Z,7.71
2022-11-03T05:16:19.134Z,7.58
2022-11-03T05:21:19.888Z,7.50
2022-11-03T05:26:20.608Z,7.50
2022-11-03T05:31:21.323Z,7.34
2022-11-03T05:36:22.119Z,7.25
2022-11-03T05:41:22.818Z,7.25
2022-11-03T05:46:23.463Z,7.21
2022-11-03T05:51:24.177Z,7.17
2022-11-03T05:56:24.858Z,7.17
2022-11-03T06:01:25.541Z,7.20
2022-11-03T06:06:31.818Z,7.21
2022-11-03T06:11:27.734Z,7.32
2022-11-03T06:16:27.447Z,7.35
2022-11-03T06:21:28.124Z,7.39
2022-11-03T06:26:28.782Z,7.40
2022-11-03T06:31:29.467Z,7.48
2022-11-03T06:36:30.126Z,7.43
2022-11-03T06:41:30.810Z,7.49
2022-11-03T06:46:31.477Z,7.39
2022-11-03T06:51:32.164Z,7.30
2022-11-03T06:56:32.872Z,7.32
2022-11-03T07:01:33.702Z,7.40
2022-11-03T07:06:34.445Z,7.40
2022-11-03T07:11:35.114Z,7.50
2022-11-03T07:16:35.762Z,7.68
2022-11-03T07:21:36.425Z,7.74
2022-11-03T07:26:37.184Z,7.89
2022-11-03T07:31:37.873Z,8.02
2022-11-03T07:36:38.665Z,8.28
2022-11-03T07:41:39.424Z,8.52
2022-11-03T07:46:40.141Z,8.66
2022-11-03T07:51:40.875Z,8.77
2022-11-03T07:56:41.669Z,8.80
2022-11-03T08:01:42.477Z,8.96
2022-11-03T08:06:43.184Z,9.18
2022-11-03T08:11:43.850Z,9.21
2022-11-03T08:16:44.501Z,9.26
2022-11-03T08:21:45.184Z,9.39
2022-11-03T08:26:45.913Z,9.61
2022-11-03T08:31:46.652Z,9.68
2022-11-03T08:36:47.321Z,9.76
2022-11-03T08:41:48.086Z,9.83
2022-11-03T08:46:48.730Z,9.87
2022-11-03T08:51:49.443Z,10.05
2022-11-03T08:56:50.218Z,10.07
2022-11-03T09:01:51.051Z,10.22
2022-11-03T09:06:51.870Z,10.42
2022-11-03T09:11:52.616Z,10.53
2022-11-03T09:16:53.388Z,10.73
2022-11-03T09:21:54.126Z,10.88
2022-11-03T09:26:59.498Z,11.90
2022-11-03T09:31:56.333Z,12.77
2022-11-03T09:36:56.122Z,12.01
2022-11-03T09:41:58.856Z,11.61
2022-11-03T09:46:58.605Z,11.62
2022-11-03T09:51:58.480Z,11.69
2022-11-03T09:56:59.361Z,11.72
2022-11-03T10:02:00.238Z,11.76
2022-11-03T10:07:00.498Z,12.04
2022-11-03T10:12:01.198Z,12.13
2022-11-03T10:17:01.602Z,12.23
2022-11-03T10:22:02.327Z,12.32
2022-11-03T10:27:03.116Z,12.50
2022-11-03T10:32:03.765Z,12.57
2022-11-03T10:37:04.526Z,12.70
2022-11-03T10:42:05.575Z,12.79
2022-11-03T10:47:05.724Z,12.87
2022-11-03T10:52:06.534Z,12.85
2022-11-03T10:57:07.144Z,12.83
2022-11-03T11:02:07.959Z,12.86
2022-11-03T11:07:08.721Z,12.86
2022-11-03T11:12:09.375Z,12.78
2022-11-03T11:17:10.217Z,12.83
2022-11-03T11:22:11.312Z,12.87
2022-11-03T11:27:11.477Z,12.90
2022-11-03T11:32:12.234Z,13.01
2022-11-03T11:37:12.930Z,12.89
2022-11-03T11:42:13.859Z,12.83
2022-11-03T11:47:14.229Z,12.83
2022-11-03T11:52:18.717Z,12.71
2022-11-03T11:57:15.702Z,12.72
2022-11-03T12:02:16.420Z,12.64
2022-11-03T12:07:17.103Z,12.70
2022-11-03T12:12:17.737Z,12.62
2022-11-03T12:17:18.475Z,12.65
2022-11-03T12:22:19.101Z,12.67
2022-11-03T12:27:19.931Z,12.71
2022-11-03T12:32:34.137Z,12.71
2022-11-03T12:37:22.279Z,12.74
2022-11-03T12:42:22.058Z,12.71
2022-11-03T12:47:22.681Z,12.72
2022-11-03T12:52:23.381Z,12.79
2022-11-03T12:57:24.213Z,12.78
2022-11-03T13:02:25.102Z,12.83
2022-11-03T13:07:31.821Z,12.86
2022-11-03T13:12:27.457Z,12.87
2022-11-03T13:17:31.872Z,12.93
2022-11-03T13:22:28.707Z,12.95
2022-11-03T13:27:28.437Z,12.97
2022-11-03T13:32:29.133Z,12.96
2022-11-03T13:37:29.752Z,13.00
2022-11-03T13:42:30.521Z,13.03
2022-11-03T13:47:40.475Z,13.00
2022-11-03T13:52:32.699Z,12.93
2022-11-03T14:07:34.557Z,12.74
2022-11-03T14:12:34.254Z,12.71
2022-11-03T14:17:34.930Z,12.65
2022-11-03T14:22:35.594Z,12.64
2022-11-03T14:27:36.339Z,12.60
2022-11-03T14:32:37.004Z,12.57
2022-11-03T14:37:37.736Z,12.54
2022-11-03T14:42:38.407Z,12.50
2022-11-03T14:47:39.071Z,12.46
2022-11-03T14:52:39.743Z,12.39
2022-11-03T14:57:40.404Z,12.32
2022-11-03T15:02:41.316Z,12.23
2022-11-03T15:07:41.970Z,12.16
2022-11-03T15:12:42.663Z,12.13
2022-11-03T15:17:43.379Z,12.07
2022-11-03T15:27:45.605Z,11.91
2022-11-03T15:32:45.315Z,11.79
2022-11-03T15:37:46.007Z,11.73
2022-11-03T15:42:46.618Z,11.70
2022-11-03T15:47:47.414Z,11.65
2022-11-03T15:52:48.158Z,11.58
2022-11-03T15:57:48.818Z,11.55
2022-11-03T16:02:49.737Z,11.51
2022-11-03T16:07:50.194Z,11.46
2022-11-03T16:12:50.940Z,11.47
2022-11-03T16:17:51.854Z,11.49
2022-11-03T16:22:53.696Z,11.47
2022-11-03T16:27:53.625Z,11.51
2022-11-03T16:32:55.462Z,11.55
2022-11-03T16:37:55.225Z,11.57
2022-11-03T16:42:56.087Z,11.55
2022-11-03T16:47:57.008Z,11.51
2022-11-03T16:53:05.113Z,11.51
2022-11-03T16:57:58.514Z,11.54
2022-11-03T17:02:59.234Z,11.47
2022-11-03T17:07:59.901Z,11.40
2022-11-03T17:13:00.624Z,11.36
2022-11-03T17:18:01.442Z,11.35
2022-11-03T17:23:02.199Z,11.29
2022-11-03T17:28:02.887Z,11.28
2022-11-03T17:33:03.818Z,11.28
2022-11-03T17:38:04.838Z,11.24
2022-11-03T17:43:05.477Z,11.22
2022-11-03T17:48:06.074Z,11.21
2022-11-03T17:53:07.107Z,11.21
2022-11-03T17:58:07.523Z,11.14
2022-11-03T18:03:08.750Z,11.15
2022-11-03T18:08:09.382Z,11.11
2022-11-03T18:13:09.309Z,11.06
2022-11-03T18:18:10.146Z,11.03
2022-11-03T18:23:10.869Z,11.03
2022-11-03T18:28:11.598Z,11.02
2022-11-03T18:33:12.321Z,11.00
2022-11-03T18:38:13.053Z,10.97
2022-11-03T18:43:13.809Z,10.94
2022-11-03T18:48:14.550Z,10.91
2022-11-03T18:53:15.275Z,10.92
2022-11-03T18:58:16.087Z,10.96
2022-11-03T19:03:16.795Z,10.97
2022-11-03T19:08:17.508Z,10.99
2022-11-03T19:13:18.505Z,10.94
2022-11-03T19:18:18.789Z,10.91
2022-11-03T19:23:19.481Z,10.91
2022-11-03T19:28:21.301Z,10.92
2022-11-03T19:33:21.175Z,10.85
2022-11-03T19:38:21.935Z,10.82
2022-11-03T19:43:23.347Z,10.79
2022-11-03T19:48:24.795Z,10.74
2022-11-03T19:53:23.996Z,10.74
2022-11-03T19:58:24.704Z,10.63
2022-11-03T20:03:25.417Z,10.59
2022-11-03T20:08:26.363Z,10.52
2022-11-03T20:13:26.632Z,10.48
2022-11-03T20:18:32.106Z,10.45
2022-11-03T20:23:28.370Z,10.47
2022-11-03T20:28:29.036Z,10.44
2022-11-03T20:33:29.732Z,10.40
2022-11-03T20:38:32.924Z,10.41
2022-11-03T20:43:31.063Z,10.40
2022-11-03T20:48:31.810Z,10.29
2022-11-03T20:53:33.960Z,10.26
2022-11-03T20:58:33.188Z,10.26
2022-11-03T21:08:35.506Z,10.08
2022-11-03T21:13:35.184Z,10.09
2022-11-03T21:18:35.842Z,10.05
2022-11-03T21:23:36.534Z,10.02
2022-11-03T21:28:37.474Z,9.97
2022-11-03T21:33:38.549Z,9.96
2022-11-03T21:38:38.980Z,9.97
2022-11-03T21:43:39.858Z,9.93
2022-11-03T21:48:40.907Z,9.84
2022-11-03T21:53:41.240Z,9.83
2022-11-03T21:58:42.091Z,9.81
2022-11-03T22:03:42.781Z,9.78
2022-11-03T22:08:43.595Z,9.79
2022-11-03T22:13:44.547Z,9.83
2022-11-03T22:18:44.825Z,9.87
2022-11-03T22:23:45.716Z,9.96
2022-11-03T22:28:46.452Z,9.99
2022-11-03T22:33:47.226Z,10.01
2022-11-03T22:38:47.911Z,10.05
2022-11-03T22:43:48.733Z,10.05
2022-11-03T22:48:49.485Z,10.02
2022-11-03T22:53:57.202Z,10.05
2022-11-03T22:58:50.918Z,10.01
2022-11-03T23:03:51.762Z,10.02
2022-11-03T23:08:52.434Z,9.91
2022-11-03T23:13:53.271Z,9.89
2022-11-03T23:18:53.985Z,9.91
2022-11-03T23:23:54.653Z,9.87
2022-11-03T23:28:55.424Z,9.84
2022-11-03T23:33:56.306Z,9.76
2022-11-03T23:38:57.106Z,9.65
2022-11-03T23:43:57.868Z,9.56
2022-11-03T23:48:58.565Z,9.48
2022-11-03T23:53:59.336Z,9.46
2022-11-03T23:59:00.102Z,9.43
